Time;durP1;ratioP1;P1;durP2;ratioP2;P2;SDS_P1;SDS_P2;PMS_P1;PMS_P2;Temp;Humidity;BMP_temperature;BMP_pressure;BME280_temperature;BME280_humidity;BME280_pressure;Samples;Min_cycle;Max_cycle;Signal;HPM_P1;HPM_P2
2023/05/11 05:02:00;;;;;;;;;4.33;3.67;;;;;16.02;64.42;101339.88;6221061;22;45228;-64
2023/05/11 05:04:25;;;;;;;;;7.33;4.00;;;;;16.04;63.92;101343.34;6244454;22;49373;-63
2023/05/11 05:06:51;;;;;;;;;4.33;3.00;;;;;16.07;63.81;101348.50;6216755;22;49601;-63
2023/05/11 05:09:16;;;;;;;;;3.00;3.00;;;;;16.10;64.07;101342.06;6244322;22;45560;-63
2023/05/11 05:11:41;;;;;;;;;3.00;3.00;;;;;16.11;64.10;101343.81;6242602;22;45406;-63
2023/05/11 05:14:08;;;;;;;;;7.00;5.00;;;;;16.14;63.66;101354.31;6244262;22;46400;-63
2023/05/11 05:16:33;;;;;;;;;6.67;5.00;;;;;16.19;64.00;101349.53;6244366;22;70006;-63
2023/05/11 05:18:59;;;;;;;;;3.67;2.67;;;;;16.19;64.10;101346.84;6218738;22;45345;-63
2023/05/11 05:21:24;;;;;;;;;4.00;4.00;;;;;16.19;63.68;101352.19;6245635;22;68385;-63
2023/05/11 05:23:50;;;;;;;;;4.00;4.00;;;;;16.17;63.65;101356.81;6191642;22;48155;-62
2023/05/11 05:26:15;;;;;;;;;3.00;3.00;;;;;16.21;63.34;101361.03;6245466;22;63076;-63
2023/05/11 05:28:40;;;;;;;;;5.33;4.33;;;;;16.24;63.71;101362.66;6244729;22;45200;-62
2023/05/11 05:31:06;;;;;;;;;5.00;4.00;;;;;16.24;63.86;101360.81;6244705;22;66535;-62
2023/05/11 05:33:31;;;;;;;;;2.33;2.33;;;;;16.28;63.33;101370.41;6245068;22;49045;-62
2023/05/11 05:35:56;;;;;;;;;4.67;4.00;;;;;16.31;62.95;101364.84;6244302;22;71226;-64
2023/05/11 05:38:22;;;;;;;;;5.67;4.00;;;;;16.31;63.56;101370.22;6218343;22;62713;-63
2023/05/11 05:40:47;;;;;;;;;2.67;2.67;;;;;16.28;63.78;101370.41;6245800;22;45437;-62
2023/05/11 05:43:12;;;;;;;;;8.00;5.00;;;;;16.31;63.31;101370.22;6244834;22;45933;-62
2023/05/11 05:45:38;;;;;;;;;6.33;3.67;;;;;16.32;63.08;101369.25;6216509;22;45767;-63
2023/05/11 05:48:04;;;;;;;;;3.00;3.00;;;;;16.34;63.58;101370.00;6245368;22;45529;-62
2023/05/11 05:50:30;;;;;;;;;7.33;5.67;;;;;16.40;63.01;101371.44;6245300;22;45398;-62
2023/05/11 05:52:56;;;;;;;;;4.33;4.00;;;;;16.44;63.14;101378.31;6242261;22;45969;-63
2023/05/11 05:55:21;;;;;;;;;5.00;4.00;;;;;16.49;63.02;101372.63;6244809;22;45268;-62
2023/05/11 05:57:46;;;;;;;;;4.00;3.00;;;;;16.56;63.38;101381.13;6240427;22;70304;-62
2023/05/11 06:00:12;;;;;;;;;5.67;4.67;;;;;16.63;63.02;101385.16;6245221;22;45508;-62
2023/05/11 06:02:38;;;;;;;;;4.67;4.00;;;;;16.70;62.47;101378.44;6244584;22;45795;-62
2023/05/11 06:05:03;;;;;;;;;4.33;4.00;;;;;16.73;62.48;101388.94;6244104;22;65758;-61
2023/05/11 06:07:29;;;;;;;;;7.33;4.67;;;;;16.78;62.72;101384.13;6246231;22;45259;-62
2023/05/11 06:09:54;;;;;;;;;4.33;4.33;;;;;16.84;62.37;101382.84;6246223;22;45603;-62
2023/05/11 06:12:19;;;;;;;;;3.67;3.67;;;;;16.88;62.38;101384.38;6245731;22;72582;-62
2023/05/11 06:14:45;;;;;;;;;3.67;3.33;;;;;16.96;62.20;101387.44;6244998;22;56442;-63
2023/05/11 06:17:10;;;;;;;;;9.00;5.00;;;;;17.00;61.59;101388.94;6246707;22;45458;-63
2023/05/11 06:19:36;;;;;;;;;6.33;5.00;;;;;17.05;61.62;101390.47;6245838;22;45536;-63
2023/05/11 06:22:01;;;;;;;;;5.67;4.67;;;;;17.08;61.82;101390.25;6243635;22;45903;-63
2023/05/11 06:24:27;;;;;;;;;6.67;4.33;;;;;17.12;61.71;101395.31;6219324;22;45230;-63
2023/05/11 06:26:52;;;;;;;;;8.67;6.00;;;;;17.16;61.70;101395.97;6244894;22;66784;-63
2023/05/11 06:29:18;;;;;;;;;5.33;4.33;;;;;17.17;61.30;101393.19;6245962;22;67154;-63
2023/05/11 06:31:44;;;;;;;;;5.00;5.00;;;;;17.17;61.29;101400.38;6246189;22;45305;-63
2023/05/11 06:34:09;;;;;;;;;4.33;4.33;;;;;17.22;61.08;101398.22;6246567;22;45266;-62
2023/05/11 06:36:35;;;;;;;;;5.33;4.33;;;;;17.29;61.02;101402.22;6246330;22;45322;-62
2023/05/11 06:39:00;;;;;;;;;6.33;3.67;;;;;17.28;60.60;101400.50;6244330;22;45405;-62
2023/05/11 06:41:25;;;;;;;;;6.33;5.33;;;;;17.31;60.85;101400.31;6246154;22;45964;-62
2023/05/11 06:43:51;;;;;;;;;4.67;4.67;;;;;17.33;60.82;101409.09;6245358;22;45243;-62
2023/05/11 06:46:16;;;;;;;;;5.67;4.67;;;;;17.40;60.57;101403.31;6245138;22;66850;-64
2023/05/11 06:48:42;;;;;;;;;7.67;6.00;;;;;17.39;60.06;101410.53;6216950;22;45365;-62
2023/05/11 06:51:11;;;;;;;;;4.00;4.00;;;;;17.41;60.51;101407.72;6219975;22;45466;-62
2023/05/11 06:53:37;;;;;;;;;5.67;4.67;;;;;17.47;60.18;101409.97;6246007;22;45234;-63
2023/05/11 06:56:02;;;;;;;;;8.00;5.00;;;;;17.57;60.11;101411.03;6245229;22;45134;-63
2023/05/11 06:58:28;;;;;;;;;8.67;5.00;;;;;17.68;59.90;101400.41;6191336;22;45571;-62
2023/05/11 07:00:53;;;;;;;;;2.00;2.00;;;;;17.80;59.57;101411.28;6218127;22;59524;-63
2023/05/11 07:03:18;;;;;;;;;7.00;5.67;;;;;17.87;59.67;101407.16;6245331;22;70304;-63
2023/05/11 07:05:43;;;;;;;;;7.67;5.00;;;;;17.93;58.99;101404.06;6246942;22;45521;-63
2023/05/11 07:08:09;;;;;;;;;3.67;3.67;;;;;17.99;58.97;101402.75;6220006;22;45281;-63
2023/05/11 07:10:34;;;;;;;;;8.00;5.00;;;;;18.06;58.99;101405.91;6246684;22;45939;-63
2023/05/11 07:13:00;;;;;;;;;4.00;4.00;;;;;18.17;58.84;101404.13;6218533;22;69179;-63
2023/05/11 07:15:25;;;;;;;;;4.33;1.00;;;;;18.25;58.46;101402.72;6244373;22;68267;-63
2023/05/11 07:17:51;;;;;;;;;7.00;5.67;;;;;18.28;58.03;101402.50;6244669;22;67534;-63
2023/05/11 07:20:16;;;;;;;;;3.33;3.33;;;;;18.26;58.02;101401.75;6243046;22;46039;-63
2023/05/11 07:22:42;;;;;;;;;5.67;4.67;;;;;18.27;57.86;101403.47;6242710;22;45385;-63
2023/05/11 07:25:08;;;;;;;;;7.67;5.67;;;;;18.22;58.06;101394.88;6246077;22;45479;-63
2023/05/11 07:27:34;;;;;;;;;10.00;6.33;;;;;18.20;58.15;101405.75;6244805;22;45292;-64
2023/05/11 07:29:59;;;;;;;;;6.00;6.00;;;;;18.24;58.00;101404.56;6244773;22;46370;-63
2023/05/11 07:32:24;;;;;;;;;4.33;4.33;;;;;18.23;57.78;101397.44;6244275;22;70977;-63
2023/05/11 07:34:49;;;;;;;;;7.67;3.00;;;;;18.20;57.91;101400.38;6245039;22;58816;-63
2023/05/11 07:37:15;;;;;;;;;8.00;4.67;;;;;18.26;57.82;101407.97;6245328;22;45383;-62
2023/05/11 07:39:40;;;;;;;;;9.33;5.67;;;;;18.37;57.74;101409.03;6240854;22;45854;-63
2023/05/11 07:42:06;;;;;;;;;5.67;5.67;;;;;18.54;57.34;101405.09;6243684;22;65827;-63
2023/05/11 07:44:31;;;;;;;;;8.00;6.33;;;;;18.65;56.91;101400.59;6244591;22;45549;-63
2023/05/11 07:46:57;;;;;;;;;4.67;4.67;;;;;18.82;57.22;101409.28;6243428;22;68019;-63
2023/05/11 07:49:22;;;;;;;;;8.00;6.33;;;;;18.98;56.66;101406.28;6215761;22;45624;-63
2023/05/11 07:51:49;;;;;;;;;8.00;7.00;;;;;19.15;56.17;101407.69;6217619;22;45257;-64
2023/05/11 07:54:14;;;;;;;;;5.33;5.33;;;;;19.38;56.11;101407.78;6245657;22;45408;-63
2023/05/11 07:56:40;;;;;;;;;9.00;6.33;;;;;19.62;55.11;101411.25;6244520;22;45584;-64
2023/05/11 07:59:06;;;;;;;;;6.00;5.00;;;;;19.74;55.24;101409.41;6245329;22;46058;-64
2023/05/11 08:01:31;;;;;;;;;5.33;5.33;;;;;19.74;54.43;101412.13;6245098;22;45255;-64
2023/05/11 08:03:56;;;;;;;;;6.33;6.00;;;;;19.70;53.87;101404.38;6242669;22;45855;-63
2023/05/11 08:06:22;;;;;;;;;6.33;6.00;;;;;19.79;54.50;101412.59;6244220;22;67353;-64
2023/05/11 08:08:47;;;;;;;;;10.67;4.33;;;;;19.89;53.78;101410.06;6243817;22;69087;-64
2023/05/11 08:11:12;;;;;;;;;6.33;5.67;;;;;20.12;53.71;101407.34;6244020;22;74056;-63
2023/05/11 08:13:38;;;;;;;;;6.00;5.67;;;;;20.29;53.58;101400.56;6244893;22;45299;-64
2023/05/11 08:16:03;;;;;;;;;7.67;7.00;;;;;20.50;52.94;101398.78;6244585;22;65629;-64
2023/05/11 08:18:29;;;;;;;;;5.33;5.00;;;;;20.56;51.93;101402.84;6245476;22;45290;-64
2023/05/11 08:20:54;;;;;;;;;9.67;5.67;;;;;20.44;52.48;101393.91;6246008;22;45230;-64
2023/05/11 08:23:19;;;;;;;;;3.00;3.00;;;;;20.38;51.88;101402.53;6245802;22;45817;-64
2023/05/11 08:25:53;;;;;;;;;7.00;5.00;;;;;20.49;52.37;101396.22;6243147;22;68074;-64
2023/05/11 08:28:19;;;;;;;;;8.33;6.67;;;;;20.65;51.82;101399.38;6192436;22;46138;-64
2023/05/11 08:30:44;;;;;;;;;5.33;5.33;;;;;20.76;51.92;101406.59;6243865;22;45331;-64
2023/05/11 08:33:10;;;;;;;;;7.00;6.00;;;;;20.91;51.14;101395.47;6245008;22;50891;-64
2023/05/11 08:35:37;;;;;;;;;5.67;5.67;;;;;21.06;50.74;101399.59;6245021;22;45416;-64
2023/05/11 08:38:02;;;;;;;;;7.33;7.33;;;;;21.07;50.27;101400.47;6245435;22;46297;-64
2023/05/11 08:40:29;;;;;;;;;7.67;6.67;;;;;21.07;50.75;101397.75;6244869;22;45286;-64
2023/05/11 08:42:56;;;;;;;;;7.67;6.00;;;;;21.09;49.95;101403.88;6192190;22;45776;-64
2023/05/11 08:45:22;;;;;;;;;6.67;6.00;;;;;21.17;50.06;101403.22;6245814;22;45235;-64
2023/05/11 08:47:48;;;;;;;;;11.33;6.67;;;;;21.23;48.97;101406.25;6244056;22;65434;-64
2023/05/11 08:50:14;;;;;;;;;7.33;6.33;;;;;21.25;49.80;101400.72;6245832;22;45251;-64
2023/05/11 08:52:39;;;;;;;;;6.67;5.67;;;;;21.45;49.19;101404.41;6244960;22;45237;-64
2023/05/11 08:55:07;;;;;;;;;8.00;4.67;;;;;21.96;48.18;101400.84;6216944;22;45194;-64
2023/05/11 08:57:33;;;;;;;;;8.67;8.00;;;;;22.60;47.73;101397.88;6245082;22;45156;-64
2023/05/11 09:00:00;;;;;;;;;7.33;7.33;;;;;23.46;47.19;101403.41;6244462;22;45715;-64
2023/05/11 09:02:26;;;;;;;;;11.67;8.67;;;;;24.34;46.32;101390.47;6217244;22;45511;-64
2023/05/11 09:04:51;;;;;;;;;10.00;7.00;;;;;25.07;44.31;101393.09;6217324;22;48090;-64
2023/05/11 09:07:17;;;;;;;;;8.00;7.00;;;;;25.23;43.01;101389.63;6244191;22;71586;-64
2023/05/11 09:09:43;;;;;;;;;7.00;6.67;;;;;25.35;42.94;101394.84;6216083;22;45488;-64
2023/05/11 09:12:08;;;;;;;;;8.00;6.33;;;;;25.45;42.77;101392.00;6245823;22;45258;-64
2023/05/11 09:14:34;;;;;;;;;8.00;7.67;;;;;25.49;40.91;101397.00;6245962;22;45251;-65
2023/05/11 09:16:59;;;;;;;;;7.33;6.00;;;;;25.47;40.81;101398.16;6217646;22;45512;-64
2023/05/11 09:19:24;;;;;;;;;8.67;7.33;;;;;25.38;41.93;101392.69;6244657;22;70475;-64
2023/05/11 09:21:53;;;;;;;;;6.67;6.67;;;;;25.38;41.29;101397.25;6245613;22;45227;-64
2023/05/11 09:24:19;;;;;;;;;7.00;7.00;;;;;25.86;40.51;101389.53;6217859;22;62797;-64
2023/05/11 09:26:45;;;;;;;;;7.67;7.00;;;;;26.32;41.15;101397.38;6216234;22;46721;-64
2023/05/11 09:29:10;;;;;;;;;9.00;7.00;;;;;27.14;39.48;101393.91;6218325;22;45282;-65
2023/05/11 09:31:43;;;;;;;;;8.33;7.00;;;;;27.69;38.47;101401.38;6244824;22;45340;-64
2023/05/11 09:34:12;;;;;;;;;7.00;7.00;;;;;27.54;38.10;101403.94;6244906;22;45572;-64
2023/05/11 09:36:37;;;;;;;;;5.75;5.50;;;;;27.02;37.21;101401.59;6243271;22;46162;-64
2023/05/11 09:39:03;;;;;;;;;4.75;4.75;;;;;26.47;37.37;101398.44;6244595;22;45561;-64
2023/05/11 09:41:31;;;;;;;;;4.50;4.25;;;;;25.90;38.02;101407.25;6246440;22;45601;-64
2023/05/11 09:44:09;;;;;;;;;9.00;5.00;;;;;25.34;38.58;101404.00;6246478;22;52228;-64
2023/05/11 09:46:36;;;;;;;;;7.25;5.75;;;;;24.87;38.88;101400.56;6246820;22;46129;-64
2023/05/11 09:49:02;;;;;;;;;8.00;6.00;;;;;24.52;39.25;101396.81;6246760;22;45274;-65
2023/05/11 09:51:30;;;;;;;;;8.67;7.33;;;;;24.22;39.65;101398.00;6220010;22;45296;-65
2023/05/11 09:53:56;;;;;;;;;8.00;8.00;;;;;24.13;40.23;101404.34;6246427;22;45181;-65
2023/05/11 09:56:21;;;;;;;;;6.00;6.00;;;;;24.13;40.30;101397.03;6246934;22;46226;-65
2023/05/11 09:58:53;;;;;;;;;8.00;4.67;;;;;24.08;40.77;101400.22;6245694;22;45158;-52
2023/05/11 10:01:28;;;;;;;;;4.00;4.00;;;;;23.98;40.71;101406.72;6246335;22;45387;-56
2023/05/11 10:03:54;;;;;;;;;6.33;5.00;;;;;23.88;40.85;101395.84;6245236;22;45387;-56
2023/05/11 10:06:19;;;;;;;;;5.33;5.33;;;;;23.89;40.84;101390.25;6245557;22;62064;-56
2023/05/11 10:08:45;;;;;;;;;10.67;7.00;;;;;24.06;40.81;101395.94;6244195;22;45716;-56
2023/05/11 10:11:11;;;;;;;;;9.67;6.00;;;;;24.25;40.52;101379.53;6247196;22;45261;-56
2023/05/11 10:13:37;;;;;;;;;7.33;6.33;;;;;24.40;40.66;101384.44;6218555;22;45221;-57
2023/05/11 10:16:03;;;;;;;;;7.67;5.00;;;;;24.56;40.12;101376.47;6218763;22;74454;-56
2023/05/11 10:18:31;;;;;;;;;8.75;6.00;;;;;24.68;40.01;101378.97;6245976;22;45307;-56
2023/05/11 10:20:56;;;;;;;;;5.00;4.00;;;;;24.84;39.82;101373.69;6246255;22;45286;-56
2023/05/11 10:23:22;;;;;;;;;6.33;6.33;;;;;25.06;38.38;101374.22;6247333;22;45246;-56
2023/05/11 10:25:48;;;;;;;;;11.00;6.00;;;;;25.20;38.62;101380.91;6244988;22;75590;-56
2023/05/11 10:28:14;;;;;;;;;5.00;5.00;;;;;25.54;39.25;101364.69;6245815;22;64306;-56
2023/05/11 10:30:39;;;;;;;;;8.33;8.33;;;;;25.88;37.92;101369.28;6219155;22;45403;-57
2023/05/11 10:33:05;;;;;;;;;9.00;6.00;;;;;26.04;37.98;101371.22;6245518;22;58348;-56
2023/05/11 10:35:31;;;;;;;;;4.67;4.33;;;;;26.13;37.34;101363.94;6246872;22;45202;-56
2023/05/11 10:37:57;;;;;;;;;6.00;4.00;;;;;26.17;37.90;101367.19;6246295;22;45231;-54
2023/05/11 10:40:22;;;;;;;;;5.00;5.00;;;;;25.96;37.35;101364.84;6247138;22;45260;-56
2023/05/11 10:42:56;;;;;;;;;6.50;4.75;;;;;25.68;37.07;101362.38;6245389;22;45303;-55
2023/05/11 10:45:44;;;;;;;;;5.25;5.25;;;;;25.30;37.57;101364.50;6246516;22;46591;-55
2023/05/11 10:48:28;;;;;;;;;5.75;5.75;;;;;24.87;37.75;101367.06;6218898;22;45395;-56
2023/05/11 10:50:56;;;;;;;;;6.00;5.67;;;;;24.60;37.74;101368.81;6246027;22;45322;-56
2023/05/11 10:53:50;;;;;;;;;8.67;4.00;;;;;24.32;38.67;101370.78;6246328;22;45411;-55
2023/05/11 10:56:59;;;;;;;;;2.75;2.50;;;;;23.81;39.01;101371.16;6219719;22;45252;-56
2023/05/11 10:59:43;;;;;;;;;5.67;5.00;;;;;23.37;39.42;101371.72;6246598;22;45477;-56
2023/05/11 11:02:09;;;;;;;;;4.33;4.00;;;;;23.08;39.83;101369.06;6246567;22;45250;-56
2023/05/11 11:04:48;;;;;;;;;5.00;5.00;;;;;22.79;40.02;101367.22;6246045;22;45628;-57
2023/05/11 11:07:18;;;;;;;;;7.00;5.00;;;;;22.53;40.61;101366.91;6239655;22;46111;-56
2023/05/11 11:09:54;;;;;;;;;5.33;4.33;;;;;22.31;40.90;101374.28;6217849;22;45281;-59
2023/05/11 11:12:22;;;;;;;;;6.00;5.00;;;;;22.12;41.61;101367.84;6246004;22;45267;-56
2023/05/11 11:15:00;;;;;;;;;3.33;3.33;;;;;21.92;41.73;101360.66;6218148;22;45570;-58
2023/05/11 11:17:33;;;;;;;;;5.67;5.67;;;;;21.73;42.09;101370.41;6244972;22;45832;-59
2023/05/11 11:20:00;;;;;;;;;5.00;5.00;;;;;21.52;42.15;101362.28;6244710;22;45274;-59
2023/05/11 11:22:35;;;;;;;;;6.33;4.33;;;;;21.34;42.44;101366.59;6246766;22;45270;-59
2023/05/11 11:25:05;;;;;;;;;4.00;4.00;;;;;21.19;42.69;101364.25;6246731;22;45505;-59
2023/05/11 11:27:39;;;;;;;;;3.33;3.33;;;;;21.08;42.95;101358.91;6217286;22;46069;-60
2023/05/11 11:30:31;;;;;;;;;5.00;5.00;;;;;20.99;43.31;101360.56;6244144;22;45670;-59
2023/05/11 11:33:08;;;;;;;;;4.67;4.67;;;;;20.95;43.71;101362.66;6239621;22;45454;-64
2023/05/11 11:35:43;;;;;;;;;3.67;3.33;;;;;20.93;43.33;101356.50;6246232;22;45331;-66
2023/05/11 11:38:18;;;;;;;;;4.67;3.67;;;;;20.95;44.22;101354.56;6245428;22;46900;-61
2023/05/11 11:40:48;;;;;;;;;4.00;4.00;;;;;20.97;42.91;101357.13;6245216;22;45296;-61
2023/05/11 11:43:23;;;;;;;;;3.00;2.67;;;;;20.98;43.63;101353.44;6245589;22;45329;-60
2023/05/11 11:45:56;;;;;;;;;3.00;3.00;;;;;21.02;43.76;101354.88;6245410;22;45384;-61
2023/05/11 11:48:28;;;;;;;;;5.00;3.00;;;;;21.00;43.56;101351.44;6245560;22;45278;-59
2023/05/11 11:51:03;;;;;;;;;6.00;3.00;;;;;20.99;44.01;101349.75;6245419;22;45480;-67
2023/05/11 11:53:35;;;;;;;;;4.00;4.00;;;;;20.94;43.75;101352.00;6219724;22;45420;-63
2023/05/11 11:56:04;;;;;;;;;4.33;3.33;;;;;20.91;43.53;101346.81;6245718;22;45268;-57
2023/05/11 11:58:39;;;;;;;;;5.67;3.00;;;;;20.82;44.11;101343.09;6218568;22;46122;-61
2023/05/11 12:01:05;;;;;;;;;3.00;3.00;;;;;20.83;44.11;101347.47;6245956;22;45716;-68
2023/05/11 12:03:35;;;;;;;;;4.33;3.00;;;;;20.82;44.73;101343.94;6245194;22;45194;-59
2023/05/11 12:06:01;;;;;;;;;4.00;3.00;;;;;20.81;44.25;101342.22;6245575;22;45342;-62
2023/05/11 12:08:30;;;;;;;;;3.00;3.00;;;;;20.83;44.18;101339.38;6246169;22;45807;-68
2023/05/11 12:10:56;;;;;;;;;3.33;2.67;;;;;20.88;43.89;101339.84;6244744;22;45267;-56
2023/05/11 12:13:23;;;;;;;;;4.00;2.00;;;;;20.90;44.10;101334.28;6246119;22;45256;-53
2023/05/11 12:15:49;;;;;;;;;3.00;3.00;;;;;20.92;43.89;101332.31;6245087;22;45156;-61
2023/05/11 12:18:21;;;;;;;;;3.67;3.00;;;;;20.97;43.99;101335.50;6245569;22;46280;-57
2023/05/11 12:20:47;;;;;;;;;3.00;1.67;;;;;21.03;43.98;101344.91;6245226;22;45287;-49
2023/05/11 12:23:13;;;;;;;;;2.00;2.00;;;;;21.00;43.03;101335.22;6245620;22;45133;-54
2023/05/11 12:25:38;;;;;;;;;2.33;2.00;;;;;20.95;43.47;101346.44;6216414;22;45275;-54
2023/05/11 12:28:04;;;;;;;;;2.00;2.00;;;;;20.90;42.72;101339.69;6243502;22;45672;-53
2023/05/11 12:30:31;;;;;;;;;4.00;3.00;;;;;20.88;42.87;101331.72;6243725;22;56972;-51
2023/05/11 12:33:02;;;;;;;;;3.00;3.00;;;;;20.86;43.03;101328.31;6244824;22;45313;-53
2023/05/11 12:35:29;;;;;;;;;2.67;2.00;;;;;20.86;42.38;101332.84;6244415;22;45279;-51
2023/05/11 12:37:55;;;;;;;;;3.00;3.00;;;;;20.87;42.47;101335.44;6242482;22;45358;-55
2023/05/11 12:40:21;;;;;;;;;4.00;2.00;;;;;20.90;42.82;101337.00;6244862;22;45265;-60
2023/05/11 12:42:53;;;;;;;;;1.00;1.00;;;;;21.03;42.27;101334.97;6245754;22;45444;-60
2023/05/11 12:45:19;;;;;;;;;3.67;3.00;;;;;21.13;42.13;101332.31;6218944;22;45222;-60
2023/05/11 12:47:48;;;;;;;;;2.00;2.00;;;;;21.24;42.56;101331.41;6244648;22;45319;-60
2023/05/11 12:50:13;;;;;;;;;3.67;3.00;;;;;21.39;41.63;101329.19;6245731;22;45325;-60
2023/05/11 12:52:39;;;;;;;;;5.00;3.00;;;;;21.47;41.86;101329.34;6245450;22;45543;-60
2023/05/11 12:55:05;;;;;;;;;4.00;4.00;;;;;21.65;41.41;101324.19;6245857;22;45148;-60
2023/05/11 12:57:31;;;;;;;;;5.33;3.00;;;;;21.85;41.21;101324.28;6246510;22;45303;-60
2023/05/11 13:00:14;;;;;;;;;4.33;3.33;;;;;21.99;40.76;101321.16;6242716;22;45235;-60
2023/05/11 13:02:53;;;;;;;;;1.00;1.00;;;;;22.13;39.83;101322.63;6217585;22;45596;-60
2023/05/11 13:05:23;;;;;;;;;2.00;2.00;;;;;22.28;40.20;101321.25;6245158;22;45291;-60
2023/05/11 13:07:58;;;;;;;;;3.00;3.00;;;;;22.47;39.52;101319.56;6244752;22;46382;-60
2023/05/11 13:10:25;;;;;;;;;1.67;1.67;;;;;22.60;38.27;101322.00;6245801;22;45301;-60
2023/05/11 13:12:51;;;;;;;;;2.00;1.00;;;;;22.62;36.82;101320.00;6243995;22;45254;-60
2023/05/11 13:15:17;;;;;;;;;2.00;2.00;;;;;22.67;38.73;101319.56;6218155;22;45399;-60
2023/05/11 13:17:43;;;;;;;;;4.00;2.00;;;;;22.85;38.70;101316.97;6244410;22;45211;-60
2023/05/11 13:20:25;;;;;;;;;6.33;4.67;;;;;23.19;38.13;101313.81;6245282;22;45359;-60
2023/05/11 13:23:03;;;;;;;;;3.33;3.33;;;;;23.47;37.49;101317.44;6244627;22;45288;-60
2023/05/11 13:25:29;;;;;;;;;3.67;2.00;;;;;23.61;37.77;101316.94;6244863;22;45399;-61
2023/05/11 13:27:54;;;;;;;;;2.33;1.67;;;;;23.75;37.64;101306.56;6245007;22;45799;-60
2023/05/11 13:30:20;;;;;;;;;3.67;2.67;;;;;23.89;37.96;101307.94;6218428;22;45415;-61
2023/05/11 13:32:45;;;;;;;;;2.33;2.00;;;;;24.02;37.21;101299.47;6245078;22;45332;-60
2023/05/11 13:35:11;;;;;;;;;3.00;3.00;;;;;24.14;37.06;101300.94;6245412;22;45564;-61
2023/05/11 13:37:36;;;;;;;;;3.33;3.00;;;;;24.17;36.88;101297.94;6216900;22;71923;-60
2023/05/11 13:40:02;;;;;;;;;4.33;2.00;;;;;24.04;36.66;101300.13;6245149;22;45239;-60
2023/05/11 13:42:28;;;;;;;;;3.75;2.00;;;;;23.88;36.81;101293.47;6218208;22;45299;-60
2023/05/11 13:44:53;;;;;;;;;3.25;2.00;;;;;23.68;36.79;101294.63;6243556;22;45437;-60
2023/05/11 13:47:19;;;;;;;;;4.33;2.00;;;;;23.46;36.44;101300.28;6242738;22;45329;-60
2023/05/11 13:49:44;;;;;;;;;4.00;2.75;;;;;23.24;37.19;101290.63;6244890;22;45674;-60
2023/05/11 13:52:10;;;;;;;;;2.00;2.00;;;;;23.06;37.61;101300.53;6244596;22;66256;-61
2023/05/11 13:54:35;;;;;;;;;2.00;2.00;;;;;22.85;37.41;101296.13;6244293;22;45295;-60
2023/05/11 13:57:01;;;;;;;;;2.00;2.00;;;;;22.56;37.97;101299.72;6244901;22;45899;-60
2023/05/11 13:59:26;;;;;;;;;2.00;2.00;;;;;22.29;38.71;101300.41;6217158;22;45277;-60
2023/05/11 14:01:52;;;;;;;;;2.33;2.33;;;;;21.95;38.91;101308.91;6243541;22;65755;-60
2023/05/11 14:04:18;;;;;;;;;2.67;2.00;;;;;21.67;39.53;101297.88;6244607;22;57819;-60
2023/05/11 14:06:44;;;;;;;;;2.67;2.00;;;;;21.39;40.31;101299.44;6243406;22;46120;-60
2023/05/11 14:09:10;;;;;;;;;2.00;2.00;;;;;21.23;41.07;101302.63;6245327;22;45307;-60
2023/05/11 14:11:36;;;;;;;;;3.00;3.00;;;;;20.98;41.34;101297.50;6244607;22;45259;-60
2023/05/11 14:14:01;;;;;;;;;1.67;1.67;;;;;20.76;42.01;101297.66;6245236;22;45356;-60
2023/05/11 14:16:27;;;;;;;;;1.67;1.67;;;;;20.65;42.00;101298.53;6217849;22;47160;-60
2023/05/11 14:18:52;;;;;;;;;4.00;3.00;;;;;20.50;42.47;101288.00;6243761;22;48607;-60
2023/05/11 14:21:17;;;;;;;;;3.67;2.67;;;;;20.30;43.30;101294.25;6244963;22;45350;-60
2023/05/11 14:23:43;;;;;;;;;2.00;2.00;;;;;20.15;42.72;101291.84;6244109;22;45312;-60
2023/05/11 14:26:08;;;;;;;;;3.00;2.00;;;;;20.07;43.23;101291.63;6217336;22;47129;-60
2023/05/11 14:28:34;;;;;;;;;5.00;4.00;;;;;20.02;44.07;101295.69;6217602;22;72540;-60
2023/05/11 14:31:00;;;;;;;;;1.00;1.00;;;;;19.96;44.64;101295.22;6246841;22;45638;-60
2023/05/11 14:33:25;;;;;;;;;3.33;2.00;;;;;19.89;44.69;101285.88;6218775;22;45550;-60
2023/05/11 14:35:51;;;;;;;;;1.67;1.67;;;;;19.85;44.71;101289.81;6244946;22;46026;-60
2023/05/11 14:38:16;;;;;;;;;2.00;2.00;;;;;19.80;44.64;101297.41;6246368;22;45136;-60
2023/05/11 14:40:42;;;;;;;;;1.00;1.00;;;;;19.81;44.68;101293.72;6246049;22;45208;-60
2023/05/11 14:43:07;;;;;;;;;2.00;2.00;;;;;19.78;44.13;101294.84;6246042;22;46108;-60
2023/05/11 14:45:32;;;;;;;;;5.33;2.67;;;;;19.77;43.84;101292.25;6244830;22;68854;-60
2023/05/11 14:47:58;;;;;;;;;2.00;2.00;;;;;19.73;43.84;101286.25;6216983;22;62109;-61
2023/05/11 14:50:24;;;;;;;;;2.00;2.00;;;;;19.74;43.08;101287.13;6246078;22;45244;-60
2023/05/11 14:52:49;;;;;;;;;1.00;1.00;;;;;19.70;43.07;101291.91;6246099;22;45066;-61
2023/05/11 14:55:15;;;;;;;;;2.00;2.00;;;;;19.71;42.57;101284.66;6246257;22;45533;-60
2023/05/11 14:57:41;;;;;;;;;3.00;1.67;;;;;19.73;42.37;101290.81;6245522;22;45659;-60
2023/05/11 15:00:08;;;;;;;;;3.00;1.67;;;;;19.84;42.56;101277.31;6219543;22;45327;-61
2023/05/11 15:02:33;;;;;;;;;2.00;2.00;;;;;20.04;42.53;101282.91;6245202;22;45411;-60
2023/05/11 15:04:58;;;;;;;;;2.00;2.00;;;;;20.28;42.26;101280.00;6244007;22;72863;-60
2023/05/11 15:07:24;;;;;;;;;2.67;2.00;;;;;20.53;42.18;101280.66;6245999;22;45310;-61
2023/05/11 15:09:49;;;;;;;;;2.33;2.00;;;;;20.74;41.73;101281.56;6245725;22;45269;-60
2023/05/11 15:12:15;;;;;;;;;1.00;1.00;;;;;20.87;40.47;101269.69;6245214;22;45205;-60
2023/05/11 15:14:41;;;;;;;;;1.00;1.00;;;;;21.00;40.51;101270.31;6244047;22;71384;-61
2023/05/11 15:17:06;;;;;;;;;2.67;0.33;;;;;21.18;40.67;101273.28;6218196;22;45264;-60
2023/05/11 15:19:31;;;;;;;;;1.00;1.00;;;;;21.35;39.92;101266.38;6246041;22;56963;-61
2023/05/11 15:21:57;;;;;;;;;2.00;2.00;;;;;21.50;39.55;101261.47;6191977;22;67726;-61
2023/05/11 15:24:22;;;;;;;;;3.00;1.67;;;;;21.63;39.23;101261.25;6244468;22;74344;-61
2023/05/11 15:26:47;;;;;;;;;1.00;1.00;;;;;21.68;38.55;101263.53;6217314;22;45313;-60
2023/05/11 15:29:12;;;;;;;;;1.00;1.00;;;;;;;;6218073;22;68049;-61
2023/05/11 15:31:38;;;;;;;;;2.00;2.00;;;;;21.73;38.13;101262.13;6245260;22;45471;-60
2023/05/11 15:34:03;;;;;;;;;1.67;1.67;;;;;21.67;37.77;101259.09;6243637;22;73538;-60
2023/05/11 15:36:29;;;;;;;;;2.75;0.00;;;;;21.59;37.38;101267.91;6219204;22;45636;-60
2023/05/11 15:38:55;;;;;;;;;4.33;2.00;;;;;21.57;38.07;101268.06;6245058;22;45594;-60
2023/05/11 15:41:20;;;;;;;;;1.00;1.00;;;;;21.61;38.39;101265.94;6246128;22;47921;-60
2023/05/11 15:43:46;;;;;;;;;2.00;2.00;;;;;21.65;38.08;101261.94;6244965;22;46805;-60
2023/05/11 15:46:11;;;;;;;;;1.00;1.00;;;;;21.61;38.62;101260.53;6245568;22;45317;-60
2023/05/11 15:48:36;;;;;;;;;1.33;1.00;;;;;21.63;38.23;101261.25;6244794;22;45596;-60
2023/05/11 15:51:02;;;;;;;;;2.67;2.67;;;;;21.60;37.59;101266.91;6218283;22;69076;-61
2023/05/11 15:53:27;;;;;;;;;4.67;2.67;;;;;21.52;38.16;101264.88;6193244;22;46780;-61
2023/05/11 15:55:54;;;;;;;;;2.00;2.00;;;;;21.49;38.45;101257.03;6244682;22;67969;-58
2023/05/11 15:58:20;;;;;;;;;3.67;2.00;;;;;21.49;38.87;101255.16;6245245;22;45463;-61
2023/05/11 16:00:45;;;;;;;;;3.33;3.33;;;;;21.57;38.93;101256.38;6218239;22;45409;-61
2023/05/11 16:03:11;;;;;;;;;3.00;3.00;;;;;21.67;39.23;101259.09;6245401;22;62419;-62
2023/05/11 16:05:37;;;;;;;;;5.00;3.33;;;;;21.75;39.23;101256.56;6193353;22;45661;-62
2023/05/11 16:08:02;;;;;;;;;2.33;2.33;;;;;21.80;39.68;101259.72;6246039;22;45323;-62
2023/05/11 16:10:28;;;;;;;;;2.67;2.67;;;;;21.77;39.55;101260.88;6246879;22;45162;-62
2023/05/11 16:12:53;;;;;;;;;4.67;2.67;;;;;21.76;39.69;101261.00;6244541;22;45872;-61
2023/05/11 16:15:18;;;;;;;;;5.67;2.33;;;;;21.75;39.70;101260.13;6243793;22;45365;-61
2023/05/11 16:17:45;;;;;;;;;2.00;2.00;;;;;21.71;39.71;101257.84;6217305;22;45276;-61
2023/05/11 16:20:11;;;;;;;;;3.00;1.25;;;;;21.71;39.75;101256.00;6245565;22;45807;-61
2023/05/11 16:22:37;;;;;;;;;4.00;2.75;;;;;21.74;40.03;101250.28;6244593;22;46412;-61
2023/05/11 16:25:03;;;;;;;;;3.00;3.00;;;;;21.76;39.84;101256.44;6244814;22;45298;-60
2023/05/11 16:27:29;;;;;;;;;3.00;3.00;;;;;21.66;40.09;101254.72;6245346;22;45362;-59